Airport View

Enter AWOS ICAO identifier for current METAR.

ex. KFNL

KOPF 120953Z AUTO 33005KT 10SM SCT033 BKN047 OVC060 22/20 A2995 RMK AO2 SLP144 T02220200

12 Nov 2019 10:42

Other Area AWOS: KHWO - KMIA - KFLL - KTMB

TAF AMD KOPF 120934Z 1210/1306 VRB04KT P6SM FEW035 SCT250 FM121500 16007KT P6SM SCT035 SCT250 FM122200 21005KT P6SM FEW050 SCT110 FM130200 28003KT P6SM FEW100